Página principal
METAR-TAF:

METAR-TAF

Aeroportos :

Piedras Negras, México

latitude: 28-42N, longitude: 100-31W, altura: 250 m

Observação actual do tempo

O boletim foi feito há 6 horas e 50 minutos, às 23:40 UTC
Vento calmo
Temperatura 15°C
Humidade 51%
Pressão 1027 hPa
Visibilidade: 16.1 km
Céu limpo

METAR: MMPG 092340Z 00000KT 10SM SKC 15/05 A3032 RMK

Hora: 00:30 (06:30 UTC)

Previsão

O boletim foi feito há 35 minutos, às 05:55 UTC
Previsão válida de 10 às 06 UTC a 11 às 06 UTC
Vento 5 kt de nor-noroeste
Visibilidade: 9.7 km
Céu limpo
bruma
Temporariamente
de 10 às 12 UTC a 10 às 15 UTC
Nuvens fragmentadasa uma altura de 1000 ft
A partir de 10 às 1800 UTC
Vento 10 kt de nor-noroeste
Visibilidade: 10 km
Céu limpo
A partir de 11 às 0300 UTC
Vento 5 kt de sudeste
Visibilidade: 9.7 km
Céu limpo
bruma

TAF: MMPG 100555Z 1006/1106 33005KT 6SM HZ SKC TEMPO 1012/1015 BKN010 FM101800 33010KT P6SM SKC FM110300 13005KT 6SM HZ SKC

Observações e previsões do tempo de mais de 4000 aeroportos (mensagens METAR e TAF).

As estações disponíveis são os pontos amarelos e vermelhos sobre o mapa.

Mova o rato sobre o mapa para ver o nome da estação.

Depois clique no ponto para visualizar as observações e previsões meteorológicas.

Para alterar o mapa : clique nos botões verdes com uma cruz preta para aumentar o zoom; no botão verde com uma pitada de zoom; ou nas setas verdes para mapas adjacentes.


METAR-TAF: